sensor_id;sensor_type;location;lat;lon;timestamp;P1;durP1;ratioP1;P2;durP2;ratioP2
2934;SDS011;2462;51.456;7.248;2022-08-18T00:01:44;37.67;;;31.60;;
2934;SDS011;2462;51.456;7.248;2022-08-18T00:04:12;36.03;;;30.00;;
2934;SDS011;2462;51.456;7.248;2022-08-18T00:06:39;34.20;;;28.90;;
2934;SDS011;2462;51.456;7.248;2022-08-18T00:09:06;35.47;;;29.93;;
2934;SDS011;2462;51.456;7.248;2022-08-18T00:11:34;32.97;;;29.33;;
2934;SDS011;2462;51.456;7.248;2022-08-18T00:14:02;33.63;;;30.03;;
2934;SDS011;2462;51.456;7.248;2022-08-18T00:16:28;35.70;;;31.00;;
2934;SDS011;2462;51.456;7.248;2022-08-18T00:18:53;35.87;;;29.80;;
2934;SDS011;2462;51.456;7.248;2022-08-18T00:21:19;36.70;;;30.90;;
2934;SDS011;2462;51.456;7.248;2022-08-18T00:23:45;35.70;;;30.53;;
2934;SDS011;2462;51.456;7.248;2022-08-18T00:26:10;39.93;;;33.17;;
2934;SDS011;2462;51.456;7.248;2022-08-18T00:28:36;36.07;;;32.27;;
2934;SDS011;2462;51.456;7.248;2022-08-18T00:31:01;37.03;;;31.30;;
2934;SDS011;2462;51.456;7.248;2022-08-18T00:33:29;36.50;;;32.60;;
2934;SDS011;2462;51.456;7.248;2022-08-18T00:35:54;38.77;;;32.37;;
2934;SDS011;2462;51.456;7.248;2022-08-18T00:38:20;38.17;;;32.10;;
2934;SDS011;2462;51.456;7.248;2022-08-18T00:40:48;37.60;;;32.27;;
2934;SDS011;2462;51.456;7.248;2022-08-18T00:43:20;40.37;;;34.20;;
2934;SDS011;2462;51.456;7.248;2022-08-18T00:45:58;36.13;;;32.20;;
2934;SDS011;2462;51.456;7.248;2022-08-18T00:48:24;33.57;;;29.60;;
2934;SDS011;2462;51.456;7.248;2022-08-18T00:50:52;39.37;;;33.43;;
2934;SDS011;2462;51.456;7.248;2022-08-18T00:55:56;40.00;;;34.20;;
2934;SDS011;2462;51.456;7.248;2022-08-18T00:58:28;36.77;;;31.47;;
2934;SDS011;2462;51.456;7.248;2022-08-18T01:00:57;39.60;;;34.67;;
2934;SDS011;2462;51.456;7.248;2022-08-18T01:03:27;35.53;;;30.60;;
2934;SDS011;2462;51.456;7.248;2022-08-18T01:06:08;38.57;;;33.67;;
2934;SDS011;2462;51.456;7.248;2022-08-18T01:08:40;37.40;;;31.10;;
2934;SDS011;2462;51.456;7.248;2022-08-18T01:11:06;35.00;;;30.93;;
2934;SDS011;2462;51.456;7.248;2022-08-18T01:13:34;35.70;;;31.70;;
2934;SDS011;2462;51.456;7.248;2022-08-18T01:16:02;38.40;;;32.87;;
2934;SDS011;2462;51.456;7.248;2022-08-18T01:18:48;37.30;;;32.97;;
2934;SDS011;2462;51.456;7.248;2022-08-18T01:21:32;37.10;;;32.53;;
2934;SDS011;2462;51.456;7.248;2022-08-18T01:24:15;39.53;;;32.97;;
2934;SDS011;2462;51.456;7.248;2022-08-18T01:26:43;40.13;;;34.40;;
2934;SDS011;2462;51.456;7.248;2022-08-18T01:29:15;37.50;;;32.20;;
2934;SDS011;2462;51.456;7.248;2022-08-18T01:31:45;39.67;;;33.00;;
2934;SDS011;2462;51.456;7.248;2022-08-18T01:34:20;40.20;;;33.60;;
2934;SDS011;2462;51.456;7.248;2022-08-18T01:36:48;45.33;;;35.70;;
2934;SDS011;2462;51.456;7.248;2022-08-18T01:39:19;42.77;;;35.17;;
2934;SDS011;2462;51.456;7.248;2022-08-18T01:41:45;42.10;;;34.90;;
2934;SDS011;2462;51.456;7.248;2022-08-18T01:44:11;44.47;;;36.27;;
2934;SDS011;2462;51.456;7.248;2022-08-18T01:46:37;45.87;;;35.63;;
2934;SDS011;2462;51.456;7.248;2022-08-18T01:49:05;43.37;;;36.93;;
2934;SDS011;2462;51.456;7.248;2022-08-18T01:51:32;44.47;;;37.00;;
2934;SDS011;2462;51.456;7.248;2022-08-18T01:54:01;43.60;;;36.87;;
2934;SDS011;2462;51.456;7.248;2022-08-18T01:56:28;47.77;;;37.57;;
2934;SDS011;2462;51.456;7.248;2022-08-18T01:58:54;40.33;;;33.73;;
2934;SDS011;2462;51.456;7.248;2022-08-18T02:01:21;44.53;;;36.60;;
2934;SDS011;2462;51.456;7.248;2022-08-18T02:03:50;47.57;;;39.67;;
2934;SDS011;2462;51.456;7.248;2022-08-18T02:06:19;48.67;;;36.13;;
2934;SDS011;2462;51.456;7.248;2022-08-18T02:08:45;50.63;;;38.80;;
2934;SDS011;2462;51.456;7.248;2022-08-18T02:11:11;48.50;;;37.93;;
2934;SDS011;2462;51.456;7.248;2022-08-18T02:13:37;46.53;;;37.83;;
2934;SDS011;2462;51.456;7.248;2022-08-18T02:16:04;47.90;;;36.57;;
2934;SDS011;2462;51.456;7.248;2022-08-18T02:18:32;44.23;;;35.97;;
2934;SDS011;2462;51.456;7.248;2022-08-18T02:21:05;49.30;;;37.47;;
2934;SDS011;2462;51.456;7.248;2022-08-18T02:23:36;50.97;;;40.33;;
2934;SDS011;2462;51.456;7.248;2022-08-18T02:26:06;53.00;;;41.20;;
2934;SDS011;2462;51.456;7.248;2022-08-18T02:28:33;58.23;;;44.30;;
2934;SDS011;2462;51.456;7.248;2022-08-18T02:31:06;61.80;;;44.37;;
2934;SDS011;2462;51.456;7.248;2022-08-18T02:33:33;66.17;;;48.60;;
2934;SDS011;2462;51.456;7.248;2022-08-18T02:35:59;69.33;;;45.63;;
2934;SDS011;2462;51.456;7.248;2022-08-18T02:38:25;72.73;;;50.07;;
2934;SDS011;2462;51.456;7.248;2022-08-18T02:40:54;73.63;;;50.37;;
2934;SDS011;2462;51.456;7.248;2022-08-18T02:43:21;78.57;;;51.47;;
2934;SDS011;2462;51.456;7.248;2022-08-18T02:45:46;73.93;;;51.53;;
2934;SDS011;2462;51.456;7.248;2022-08-18T02:48:12;69.27;;;50.23;;
2934;SDS011;2462;51.456;7.248;2022-08-18T02:50:37;65.47;;;46.37;;
2934;SDS011;2462;51.456;7.248;2022-08-18T02:53:15;60.97;;;44.17;;
2934;SDS011;2462;51.456;7.248;2022-08-18T02:55:46;62.63;;;44.50;;
2934;SDS011;2462;51.456;7.248;2022-08-18T03:00:40;57.80;;;40.13;;
2934;SDS011;2462;51.456;7.248;2022-08-18T03:03:07;55.37;;;38.47;;
2934;SDS011;2462;51.456;7.248;2022-08-18T03:05:32;58.10;;;40.13;;
2934;SDS011;2462;51.456;7.248;2022-08-18T03:07:58;49.57;;;37.27;;
2934;SDS011;2462;51.456;7.248;2022-08-18T03:10:24;51.07;;;40.13;;
2934;SDS011;2462;51.456;7.248;2022-08-18T03:12:49;53.33;;;38.83;;
2934;SDS011;2462;51.456;7.248;2022-08-18T03:15:15;57.20;;;41.03;;
2934;SDS011;2462;51.456;7.248;2022-08-18T03:17:40;52.43;;;39.60;;
2934;SDS011;2462;51.456;7.248;2022-08-18T03:20:06;58.53;;;40.50;;
2934;SDS011;2462;51.456;7.248;2022-08-18T03:22:32;55.10;;;40.70;;
2934;SDS011;2462;51.456;7.248;2022-08-18T03:24:58;56.97;;;39.63;;
2934;SDS011;2462;51.456;7.248;2022-08-18T03:27:24;61.27;;;41.47;;
2934;SDS011;2462;51.456;7.248;2022-08-18T03:29:49;57.20;;;41.10;;
2934;SDS011;2462;51.456;7.248;2022-08-18T03:32:15;56.83;;;39.93;;
2934;SDS011;2462;51.456;7.248;2022-08-18T03:34:41;57.27;;;42.63;;
2934;SDS011;2462;51.456;7.248;2022-08-18T03:37:08;55.17;;;40.77;;
2934;SDS011;2462;51.456;7.248;2022-08-18T03:39:34;58.17;;;41.57;;
2934;SDS011;2462;51.456;7.248;2022-08-18T03:42:00;56.87;;;41.17;;
2934;SDS011;2462;51.456;7.248;2022-08-18T03:44:27;59.37;;;43.00;;
2934;SDS011;2462;51.456;7.248;2022-08-18T03:46:54;54.87;;;40.30;;
2934;SDS011;2462;51.456;7.248;2022-08-18T03:49:21;62.27;;;41.47;;
2934;SDS011;2462;51.456;7.248;2022-08-18T03:51:46;58.00;;;41.40;;
2934;SDS011;2462;51.456;7.248;2022-08-18T03:54:13;57.13;;;39.10;;
2934;SDS011;2462;51.456;7.248;2022-08-18T03:56:40;55.37;;;39.30;;
2934;SDS011;2462;51.456;7.248;2022-08-18T03:59:09;54.57;;;39.03;;
2934;SDS011;2462;51.456;7.248;2022-08-18T04:01:38;57.27;;;40.07;;
2934;SDS011;2462;51.456;7.248;2022-08-18T04:04:08;60.30;;;40.23;;
2934;SDS011;2462;51.456;7.248;2022-08-18T04:06:39;72.87;;;45.20;;
2934;SDS011;2462;51.456;7.248;2022-08-18T04:09:11;62.30;;;41.57;;
2934;SDS011;2462;51.456;7.248;2022-08-18T04:11:38;65.40;;;42.97;;
2934;SDS011;2462;51.456;7.248;2022-08-18T04:14:07;69.20;;;43.00;;
2934;SDS011;2462;51.456;7.248;2022-08-18T04:16:34;72.23;;;44.30;;
2934;SDS011;2462;51.456;7.248;2022-08-18T04:19:02;71.13;;;44.47;;
2934;SDS011;2462;51.456;7.248;2022-08-18T04:21:29;76.17;;;46.20;;
2934;SDS011;2462;51.456;7.248;2022-08-18T04:23:57;73.33;;;46.93;;
2934;SDS011;2462;51.456;7.248;2022-08-18T04:26:27;77.83;;;48.30;;
2934;SDS011;2462;51.456;7.248;2022-08-18T04:28:52;80.50;;;50.57;;
2934;SDS011;2462;51.456;7.248;2022-08-18T04:31:19;84.90;;;49.83;;
2934;SDS011;2462;51.456;7.248;2022-08-18T04:33:48;78.23;;;46.97;;
2934;SDS011;2462;51.456;7.248;2022-08-18T04:36:14;87.93;;;51.33;;
2934;SDS011;2462;51.456;7.248;2022-08-18T04:38:41;83.00;;;49.27;;
2934;SDS011;2462;51.456;7.248;2022-08-18T04:41:08;91.27;;;53.20;;
2934;SDS011;2462;51.456;7.248;2022-08-18T04:43:36;87.20;;;52.73;;
2934;SDS011;2462;51.456;7.248;2022-08-18T04:46:02;93.20;;;53.73;;
2934;SDS011;2462;51.456;7.248;2022-08-18T04:48:28;87.00;;;51.37;;
2934;SDS011;2462;51.456;7.248;2022-08-18T04:51:01;90.50;;;52.50;;
2934;SDS011;2462;51.456;7.248;2022-08-18T04:53:34;90.33;;;52.10;;
2934;SDS011;2462;51.456;7.248;2022-08-18T04:56:12;93.77;;;52.87;;
2934;SDS011;2462;51.456;7.248;2022-08-18T04:58:54;82.43;;;52.60;;
2934;SDS011;2462;51.456;7.248;2022-08-18T05:01:23;85.93;;;53.33;;
2934;SDS011;2462;51.456;7.248;2022-08-18T05:03:54;83.10;;;49.20;;
2934;SDS011;2462;51.456;7.248;2022-08-18T05:06:22;81.77;;;48.27;;
2934;SDS011;2462;51.456;7.248;2022-08-18T05:08:51;74.53;;;48.13;;
2934;SDS011;2462;51.456;7.248;2022-08-18T05:11:23;80.77;;;47.63;;
2934;SDS011;2462;51.456;7.248;2022-08-18T05:13:50;79.03;;;47.40;;
2934;SDS011;2462;51.456;7.248;2022-08-18T05:16:16;74.40;;;45.90;;
2934;SDS011;2462;51.456;7.248;2022-08-18T05:18:42;72.37;;;45.90;;
2934;SDS011;2462;51.456;7.248;2022-08-18T05:21:08;81.43;;;47.00;;
2934;SDS011;2462;51.456;7.248;2022-08-18T05:23:40;70.63;;;44.93;;
2934;SDS011;2462;51.456;7.248;2022-08-18T05:26:06;70.00;;;43.00;;
2934;SDS011;2462;51.456;7.248;2022-08-18T05:28:33;71.20;;;44.53;;
2934;SDS011;2462;51.456;7.248;2022-08-18T05:31:14;74.93;;;45.27;;
2934;SDS011;2462;51.456;7.248;2022-08-18T05:33:43;73.70;;;44.90;;
2934;SDS011;2462;51.456;7.248;2022-08-18T05:42:25;79.63;;;46.00;;
2934;SDS011;2462;51.456;7.248;2022-08-18T05:44:54;77.50;;;45.27;;
2934;SDS011;2462;51.456;7.248;2022-08-18T05:47:24;72.40;;;42.70;;
2934;SDS011;2462;51.456;7.248;2022-08-18T05:49:52;67.63;;;42.83;;
2934;SDS011;2462;51.456;7.248;2022-08-18T05:52:32;65.43;;;40.90;;
2934;SDS011;2462;51.456;7.248;2022-08-18T05:55:06;62.40;;;40.30;;
2934;SDS011;2462;51.456;7.248;2022-08-18T05:58:03;65.83;;;40.30;;
2934;SDS011;2462;51.456;7.248;2022-08-18T06:00:33;61.33;;;37.03;;
2934;SDS011;2462;51.456;7.248;2022-08-18T06:03:04;62.87;;;38.73;;
2934;SDS011;2462;51.456;7.248;2022-08-18T06:05:43;65.80;;;37.73;;
2934;SDS011;2462;51.456;7.248;2022-08-18T06:08:16;59.87;;;38.23;;
2934;SDS011;2462;51.456;7.248;2022-08-18T06:10:47;64.77;;;38.20;;
2934;SDS011;2462;51.456;7.248;2022-08-18T06:13:14;63.30;;;39.47;;
2934;SDS011;2462;51.456;7.248;2022-08-18T06:24:35;76.77;;;42.10;;
2934;SDS011;2462;51.456;7.248;2022-08-18T06:26:49;70.93;;;39.73;;
2934;SDS011;2462;51.456;7.248;2022-08-18T06:32:09;64.13;;;39.27;;
2934;SDS011;2462;51.456;7.248;2022-08-18T06:40:36;72.20;;;41.17;;
2934;SDS011;2462;51.456;7.248;2022-08-18T06:43:01;71.03;;;37.50;;
2934;SDS011;2462;51.456;7.248;2022-08-18T06:45:29;64.90;;;39.80;;
2934;SDS011;2462;51.456;7.248;2022-08-18T06:48:16;73.07;;;40.80;;
2934;SDS011;2462;51.456;7.248;2022-08-18T06:50:53;71.33;;;40.67;;
2934;SDS011;2462;51.456;7.248;2022-08-18T06:53:22;75.63;;;40.93;;
2934;SDS011;2462;51.456;7.248;2022-08-18T07:01:58;77.03;;;41.60;;
2934;SDS011;2462;51.456;7.248;2022-08-18T07:10:01;64.30;;;38.43;;
2934;SDS011;2462;51.456;7.248;2022-08-18T07:12:28;66.40;;;39.13;;
2934;SDS011;2462;51.456;7.248;2022-08-18T07:14:57;73.83;;;39.80;;
2934;SDS011;2462;51.456;7.248;2022-08-18T07:17:28;74.07;;;39.17;;
2934;SDS011;2462;51.456;7.248;2022-08-18T07:22:20;65.70;;;36.70;;
2934;SDS011;2462;51.456;7.248;2022-08-18T07:24:47;54.30;;;32.93;;
2934;SDS011;2462;51.456;7.248;2022-08-18T07:27:16;63.00;;;35.30;;
2934;SDS011;2462;51.456;7.248;2022-08-18T07:29:58;61.67;;;38.50;;
2934;SDS011;2462;51.456;7.248;2022-08-18T07:35:21;56.13;;;34.97;;
2934;SDS011;2462;51.456;7.248;2022-08-18T07:46:42;58.20;;;34.00;;
2934;SDS011;2462;51.456;7.248;2022-08-18T07:49:17;60.23;;;35.40;;
2934;SDS011;2462;51.456;7.248;2022-08-18T07:51:47;55.00;;;31.97;;
2934;SDS011;2462;51.456;7.248;2022-08-18T07:54:18;60.27;;;35.17;;
2934;SDS011;2462;51.456;7.248;2022-08-18T08:08:28;69.60;;;38.23;;
2934;SDS011;2462;51.456;7.248;2022-08-18T08:16:48;66.63;;;37.53;;
2934;SDS011;2462;51.456;7.248;2022-08-18T08:22:27;61.50;;;37.70;;
2934;SDS011;2462;51.456;7.248;2022-08-18T08:27:34;63.87;;;36.33;;
2934;SDS011;2462;51.456;7.248;2022-08-18T08:30:13;60.30;;;34.60;;
2934;SDS011;2462;51.456;7.248;2022-08-18T08:35:42;55.37;;;33.07;;
2934;SDS011;2462;51.456;7.248;2022-08-18T08:38:26;52.90;;;33.37;;
2934;SDS011;2462;51.456;7.248;2022-08-18T08:41:04;59.50;;;35.60;;
2934;SDS011;2462;51.456;7.248;2022-08-18T08:43:36;53.30;;;34.20;;
2934;SDS011;2462;51.456;7.248;2022-08-18T08:48:56;50.03;;;30.57;;
2934;SDS011;2462;51.456;7.248;2022-08-18T08:51:28;48.50;;;29.87;;
2934;SDS011;2462;51.456;7.248;2022-08-18T08:54:16;47.90;;;32.07;;
2934;SDS011;2462;51.456;7.248;2022-08-18T08:56:47;50.80;;;34.50;;
2934;SDS011;2462;51.456;7.248;2022-08-18T08:59:17;48.47;;;31.87;;
2934;SDS011;2462;51.456;7.248;2022-08-18T09:07:45;45.30;;;30.40;;
2934;SDS011;2462;51.456;7.248;2022-08-18T09:16:13;44.40;;;31.60;;
2934;SDS011;2462;51.456;7.248;2022-08-18T09:18:50;43.10;;;32.23;;
2934;SDS011;2462;51.456;7.248;2022-08-18T09:21:41;46.40;;;32.00;;
2934;SDS011;2462;51.456;7.248;2022-08-18T09:40:33;48.23;;;33.90;;
2934;SDS011;2462;51.456;7.248;2022-08-18T09:43:32;47.03;;;32.97;;
2934;SDS011;2462;51.456;7.248;2022-08-18T09:46:04;47.43;;;33.27;;
2934;SDS011;2462;51.456;7.248;2022-08-18T09:48:35;46.40;;;33.27;;
2934;SDS011;2462;51.456;7.248;2022-08-18T09:56:15;40.27;;;30.70;;
2934;SDS011;2462;51.456;7.248;2022-08-18T09:59:01;45.30;;;33.00;;
2934;SDS011;2462;51.456;7.248;2022-08-18T10:06:38;41.93;;;31.60;;
2934;SDS011;2462;51.456;7.248;2022-08-18T10:31:28;43.63;;;32.57;;
2934;SDS011;2462;51.456;7.248;2022-08-18T10:33:59;43.03;;;33.10;;
2934;SDS011;2462;51.456;7.248;2022-08-18T10:36:32;44.80;;;34.17;;
2934;SDS011;2462;51.456;7.248;2022-08-18T10:44:44;44.90;;;32.97;;
2934;SDS011;2462;51.456;7.248;2022-08-18T10:47:25;44.00;;;33.17;;
2934;SDS011;2462;51.456;7.248;2022-08-18T10:49:54;48.37;;;33.90;;
2934;SDS011;2462;51.456;7.248;2022-08-18T11:00:50;41.23;;;32.40;;
2934;SDS011;2462;51.456;7.248;2022-08-18T11:05:59;41.53;;;32.10;;
2934;SDS011;2462;51.456;7.248;2022-08-18T11:08:31;46.63;;;33.90;;
2934;SDS011;2462;51.456;7.248;2022-08-18T11:11:05;37.53;;;30.73;;
2934;SDS011;2462;51.456;7.248;2022-08-18T11:13:37;39.70;;;31.27;;
2934;SDS011;2462;51.456;7.248;2022-08-18T11:19:13;39.90;;;31.27;;
2934;SDS011;2462;51.456;7.248;2022-08-18T11:21:44;41.20;;;30.07;;
2934;SDS011;2462;51.456;7.248;2022-08-18T11:24:16;44.00;;;32.07;;
2934;SDS011;2462;51.456;7.248;2022-08-18T11:29:35;39.40;;;31.33;;
2934;SDS011;2462;51.456;7.248;2022-08-18T11:37:18;37.77;;;31.17;;
2934;SDS011;2462;51.456;7.248;2022-08-18T11:39:46;39.20;;;32.53;;
2934;SDS011;2462;51.456;7.248;2022-08-18T11:42:14;36.20;;;30.20;;
2934;SDS011;2462;51.456;7.248;2022-08-18T11:44:41;39.93;;;31.97;;
2934;SDS011;2462;51.456;7.248;2022-08-18T11:47:11;41.47;;;31.23;;
2934;SDS011;2462;51.456;7.248;2022-08-18T11:49:47;33.70;;;29.77;;
2934;SDS011;2462;51.456;7.248;2022-08-18T11:52:27;37.73;;;30.57;;
2934;SDS011;2462;51.456;7.248;2022-08-18T11:55:04;36.20;;;28.77;;
2934;SDS011;2462;51.456;7.248;2022-08-18T11:57:41;38.33;;;31.10;;
2934;SDS011;2462;51.456;7.248;2022-08-18T12:03:07;33.37;;;29.43;;
2934;SDS011;2462;51.456;7.248;2022-08-18T12:05:44;32.23;;;27.20;;
2934;SDS011;2462;51.456;7.248;2022-08-18T12:08:19;31.93;;;28.40;;
2934;SDS011;2462;51.456;7.248;2022-08-18T12:11:15;35.57;;;30.03;;
2934;SDS011;2462;51.456;7.248;2022-08-18T12:13:44;36.87;;;30.00;;
2934;SDS011;2462;51.456;7.248;2022-08-18T12:18:54;30.03;;;26.67;;
2934;SDS011;2462;51.456;7.248;2022-08-18T12:21:20;32.23;;;27.97;;
2934;SDS011;2462;51.456;7.248;2022-08-18T12:23:45;31.70;;;28.30;;
2934;SDS011;2462;51.456;7.248;2022-08-18T12:26:12;28.63;;;24.93;;
2934;SDS011;2462;51.456;7.248;2022-08-18T12:28:38;34.33;;;26.73;;
2934;SDS011;2462;51.456;7.248;2022-08-18T12:31:04;27.47;;;24.37;;
2934;SDS011;2462;51.456;7.248;2022-08-18T12:33:31;30.57;;;22.90;;
2934;SDS011;2462;51.456;7.248;2022-08-18T12:35:56;26.20;;;23.40;;
2934;SDS011;2462;51.456;7.248;2022-08-18T12:38:22;26.27;;;23.50;;
2934;SDS011;2462;51.456;7.248;2022-08-18T12:40:48;23.57;;;21.23;;
2934;SDS011;2462;51.456;7.248;2022-08-18T12:43:14;26.13;;;23.20;;
2934;SDS011;2462;51.456;7.248;2022-08-18T12:45:39;25.67;;;23.00;;
2934;SDS011;2462;51.456;7.248;2022-08-18T12:48:05;27.80;;;24.90;;
2934;SDS011;2462;51.456;7.248;2022-08-18T12:50:31;27.13;;;24.00;;
2934;SDS011;2462;51.456;7.248;2022-08-18T12:52:57;29.50;;;23.83;;
2934;SDS011;2462;51.456;7.248;2022-08-18T12:55:23;30.40;;;24.40;;
2934;SDS011;2462;51.456;7.248;2022-08-18T12:57:49;28.73;;;23.07;;
2934;SDS011;2462;51.456;7.248;2022-08-18T13:00:15;31.83;;;25.60;;
2934;SDS011;2462;51.456;7.248;2022-08-18T13:02:41;27.67;;;24.70;;
2934;SDS011;2462;51.456;7.248;2022-08-18T13:05:07;26.43;;;23.67;;
2934;SDS011;2462;51.456;7.248;2022-08-18T13:07:33;26.50;;;22.20;;
2934;SDS011;2462;51.456;7.248;2022-08-18T13:09:58;24.43;;;22.00;;
2934;SDS011;2462;51.456;7.248;2022-08-18T13:12:25;22.13;;;19.87;;
2934;SDS011;2462;51.456;7.248;2022-08-18T13:14:50;20.90;;;17.50;;
2934;SDS011;2462;51.456;7.248;2022-08-18T13:17:18;20.10;;;17.90;;
2934;SDS011;2462;51.456;7.248;2022-08-18T13:19:44;19.37;;;17.47;;
2934;SDS011;2462;51.456;7.248;2022-08-18T13:22:11;21.90;;;17.53;;
2934;SDS011;2462;51.456;7.248;2022-08-18T13:24:37;18.83;;;16.83;;
2934;SDS011;2462;51.456;7.248;2022-08-18T13:27:02;16.93;;;15.23;;
2934;SDS011;2462;51.456;7.248;2022-08-18T13:29:28;17.03;;;15.30;;
2934;SDS011;2462;51.456;7.248;2022-08-18T13:31:54;15.67;;;14.07;;
2934;SDS011;2462;51.456;7.248;2022-08-18T13:34:23;15.50;;;14.00;;
2934;SDS011;2462;51.456;7.248;2022-08-18T13:36:49;14.43;;;13.10;;
2934;SDS011;2462;51.456;7.248;2022-08-18T13:39:16;15.87;;;14.27;;
2934;SDS011;2462;51.456;7.248;2022-08-18T13:41:43;14.83;;;13.33;;
2934;SDS011;2462;51.456;7.248;2022-08-18T13:44:10;14.80;;;13.30;;
2934;SDS011;2462;51.456;7.248;2022-08-18T13:46:39;12.63;;;11.43;;
2934;SDS011;2462;51.456;7.248;2022-08-18T13:49:16;13.87;;;12.30;;
2934;SDS011;2462;51.456;7.248;2022-08-18T13:51:43;14.23;;;12.73;;
2934;SDS011;2462;51.456;7.248;2022-08-18T13:54:13;13.00;;;11.60;;
2934;SDS011;2462;51.456;7.248;2022-08-18T13:56:43;12.43;;;11.13;;
2934;SDS011;2462;51.456;7.248;2022-08-18T13:59:10;13.50;;;12.10;;
2934;SDS011;2462;51.456;7.248;2022-08-18T14:01:37;14.47;;;11.63;;
2934;SDS011;2462;51.456;7.248;2022-08-18T14:04:03;13.77;;;12.37;;
2934;SDS011;2462;51.456;7.248;2022-08-18T14:06:29;15.17;;;13.67;;
2934;SDS011;2462;51.456;7.248;2022-08-18T14:08:54;27.40;;;24.50;;
2934;SDS011;2462;51.456;7.248;2022-08-18T14:11:21;23.73;;;21.30;;
2934;SDS011;2462;51.456;7.248;2022-08-18T14:13:51;19.77;;;17.87;;
2934;SDS011;2462;51.456;7.248;2022-08-18T14:16:18;16.60;;;14.80;;
2934;SDS011;2462;51.456;7.248;2022-08-18T14:18:45;14.43;;;13.00;;
2934;SDS011;2462;51.456;7.248;2022-08-18T14:21:31;13.77;;;12.43;;
2934;SDS011;2462;51.456;7.248;2022-08-18T14:24:16;14.33;;;12.93;;
2934;SDS011;2462;51.456;7.248;2022-08-18T14:27:00;15.60;;;12.90;;
2934;SDS011;2462;51.456;7.248;2022-08-18T14:29:26;12.77;;;11.57;;
2934;SDS011;2462;51.456;7.248;2022-08-18T14:31:51;12.53;;;11.33;;
2934;SDS011;2462;51.456;7.248;2022-08-18T14:34:17;16.20;;;12.17;;
2934;SDS011;2462;51.456;7.248;2022-08-18T14:36:42;13.40;;;12.10;;
2934;SDS011;2462;51.456;7.248;2022-08-18T14:39:09;18.80;;;13.87;;
2934;SDS011;2462;51.456;7.248;2022-08-18T14:41:34;13.97;;;12.57;;
2934;SDS011;2462;51.456;7.248;2022-08-18T14:44:01;12.40;;;11.30;;
2934;SDS011;2462;51.456;7.248;2022-08-18T14:46:27;20.10;;;11.60;;
2934;SDS011;2462;51.456;7.248;2022-08-18T14:48:53;13.40;;;11.60;;
2934;SDS011;2462;51.456;7.248;2022-08-18T14:51:18;12.83;;;11.40;;
2934;SDS011;2462;51.456;7.248;2022-08-18T14:53:44;13.10;;;11.90;;
2934;SDS011;2462;51.456;7.248;2022-08-18T14:56:09;10.97;;;9.97;;
2934;SDS011;2462;51.456;7.248;2022-08-18T14:58:36;12.60;;;11.27;;
2934;SDS011;2462;51.456;7.248;2022-08-18T15:01:04;11.27;;;10.20;;
2934;SDS011;2462;51.456;7.248;2022-08-18T15:03:32;10.37;;;9.40;;
2934;SDS011;2462;51.456;7.248;2022-08-18T15:06:00;11.03;;;10.03;;
2934;SDS011;2462;51.456;7.248;2022-08-18T15:08:27;10.87;;;9.87;;
2934;SDS011;2462;51.456;7.248;2022-08-18T15:10:53;10.80;;;9.90;;
2934;SDS011;2462;51.456;7.248;2022-08-18T15:13:19;10.60;;;9.60;;
2934;SDS011;2462;51.456;7.248;2022-08-18T15:15:46;9.40;;;8.47;;
2934;SDS011;2462;51.456;7.248;2022-08-18T15:18:11;9.57;;;8.77;;
2934;SDS011;2462;51.456;7.248;2022-08-18T15:20:37;11.40;;;8.73;;
2934;SDS011;2462;51.456;7.248;2022-08-18T15:23:24;8.40;;;7.57;;
2934;SDS011;2462;51.456;7.248;2022-08-18T15:26:09;10.07;;;8.40;;
2934;SDS011;2462;51.456;7.248;2022-08-18T15:28:35;9.20;;;8.33;;
2934;SDS011;2462;51.456;7.248;2022-08-18T15:31:02;8.67;;;7.83;;
2934;SDS011;2462;51.456;7.248;2022-08-18T15:33:29;9.10;;;8.03;;
2934;SDS011;2462;51.456;7.248;2022-08-18T15:35:54;9.67;;;8.77;;
2934;SDS011;2462;51.456;7.248;2022-08-18T15:38:21;10.23;;;9.23;;
2934;SDS011;2462;51.456;7.248;2022-08-18T15:40:55;9.70;;;8.80;;
2934;SDS011;2462;51.456;7.248;2022-08-18T15:43:23;11.17;;;9.60;;
2934;SDS011;2462;51.456;7.248;2022-08-18T15:45:53;11.00;;;9.47;;
2934;SDS011;2462;51.456;7.248;2022-08-18T15:48:19;10.80;;;9.00;;
2934;SDS011;2462;51.456;7.248;2022-08-18T15:50:46;9.00;;;8.20;;
2934;SDS011;2462;51.456;7.248;2022-08-18T15:53:15;8.33;;;7.53;;
2934;SDS011;2462;51.456;7.248;2022-08-18T15:55:56;7.40;;;6.80;;
2934;SDS011;2462;51.456;7.248;2022-08-18T15:58:21;10.20;;;7.70;;
2934;SDS011;2462;51.456;7.248;2022-08-18T16:00:47;8.53;;;7.83;;
2934;SDS011;2462;51.456;7.248;2022-08-18T16:03:13;8.57;;;7.77;;
2934;SDS011;2462;51.456;7.248;2022-08-18T16:05:44;8.67;;;7.97;;
2934;SDS011;2462;51.456;7.248;2022-08-18T16:08:18;7.80;;;7.10;;
2934;SDS011;2462;51.456;7.248;2022-08-18T16:10:45;7.67;;;6.90;;
2934;SDS011;2462;51.456;7.248;2022-08-18T16:13:11;9.07;;;7.60;;
2934;SDS011;2462;51.456;7.248;2022-08-18T16:15:39;10.10;;;8.93;;
2934;SDS011;2462;51.456;7.248;2022-08-18T16:18:06;8.53;;;7.70;;
2934;SDS011;2462;51.456;7.248;2022-08-18T16:20:32;8.53;;;7.50;;
2934;SDS011;2462;51.456;7.248;2022-08-18T16:22:59;9.00;;;8.20;;
2934;SDS011;2462;51.456;7.248;2022-08-18T16:25:25;8.70;;;8.00;;
2934;SDS011;2462;51.456;7.248;2022-08-18T16:27:51;7.70;;;7.00;;
2934;SDS011;2462;51.456;7.248;2022-08-18T16:30:18;8.20;;;7.40;;
2934;SDS011;2462;51.456;7.248;2022-08-18T16:32:47;7.13;;;6.43;;
2934;SDS011;2462;51.456;7.248;2022-08-18T16:35:14;7.70;;;7.00;;
2934;SDS011;2462;51.456;7.248;2022-08-18T16:37:42;7.50;;;6.70;;
2934;SDS011;2462;51.456;7.248;2022-08-18T16:40:08;8.43;;;7.63;;
2934;SDS011;2462;51.456;7.248;2022-08-18T16:42:34;7.70;;;6.53;;
2934;SDS011;2462;51.456;7.248;2022-08-18T16:45:00;7.27;;;6.57;;
2934;SDS011;2462;51.456;7.248;2022-08-18T16:47:30;10.90;;;6.30;;
2934;SDS011;2462;51.456;7.248;2022-08-18T16:50:06;7.00;;;6.40;;
2934;SDS011;2462;51.456;7.248;2022-08-18T16:52:34;6.80;;;6.20;;
2934;SDS011;2462;51.456;7.248;2022-08-18T16:55:00;7.53;;;6.83;;
2934;SDS011;2462;51.456;7.248;2022-08-18T16:57:26;8.93;;;5.97;;
2934;SDS011;2462;51.456;7.248;2022-08-18T17:00:11;6.90;;;6.30;;
2934;SDS011;2462;51.456;7.248;2022-08-18T17:02:55;6.30;;;5.80;;
2934;SDS011;2462;51.456;7.248;2022-08-18T17:05:39;7.23;;;6.63;;
2934;SDS011;2462;51.456;7.248;2022-08-18T17:08:04;7.47;;;5.90;;
2934;SDS011;2462;51.456;7.248;2022-08-18T17:10:30;6.57;;;5.97;;
2934;SDS011;2462;51.456;7.248;2022-08-18T17:13:01;6.90;;;6.20;;
2934;SDS011;2462;51.456;7.248;2022-08-18T17:15:30;7.83;;;7.13;;
2934;SDS011;2462;51.456;7.248;2022-08-18T17:17:56;7.80;;;7.10;;
2934;SDS011;2462;51.456;7.248;2022-08-18T17:20:22;9.30;;;7.03;;
2934;SDS011;2462;51.456;7.248;2022-08-18T17:22:47;6.77;;;6.17;;
2934;SDS011;2462;51.456;7.248;2022-08-18T17:25:14;7.70;;;6.53;;
2934;SDS011;2462;51.456;7.248;2022-08-18T17:27:45;6.70;;;6.10;;
2934;SDS011;2462;51.456;7.248;2022-08-18T17:30:14;7.10;;;6.40;;
2934;SDS011;2462;51.456;7.248;2022-08-18T17:35:32;6.53;;;5.90;;
2934;SDS011;2462;51.456;7.248;2022-08-18T17:40:56;7.67;;;5.03;;
2934;SDS011;2462;51.456;7.248;2022-08-18T17:43:23;6.43;;;5.87;;
2934;SDS011;2462;51.456;7.248;2022-08-18T17:45:57;7.70;;;7.00;;
2934;SDS011;2462;51.456;7.248;2022-08-18T17:48:38;6.77;;;6.07;;
2934;SDS011;2462;51.456;7.248;2022-08-18T17:51:14;6.60;;;6.00;;
2934;SDS011;2462;51.456;7.248;2022-08-18T17:53:58;6.40;;;5.47;;
2934;SDS011;2462;51.456;7.248;2022-08-18T17:56:32;6.53;;;5.87;;
2934;SDS011;2462;51.456;7.248;2022-08-18T17:59:21;6.30;;;5.80;;
2934;SDS011;2462;51.456;7.248;2022-08-18T18:02:11;10.37;;;5.83;;
2934;SDS011;2462;51.456;7.248;2022-08-18T18:04:44;6.73;;;6.13;;
2934;SDS011;2462;51.456;7.248;2022-08-18T18:07:30;7.07;;;6.40;;
2934;SDS011;2462;51.456;7.248;2022-08-18T18:09:58;6.40;;;5.80;;
2934;SDS011;2462;51.456;7.248;2022-08-18T18:12:26;7.20;;;6.60;;